Quick Links (Output Below):   Max & Min Temps   /   Climate Reports   /   Zone Forecasts
River Forecasts   /   Forestry Forecasts   /   Aviation Forecasts   /   Radars   /   Features

Terminal Aerodrome Forecast (Harrison)

Pick a Site:
Arkadelphia | El Dorado | Fayetteville | Fort Smith | Harrison | Highfill | Hot Springs | Jonesboro
Little Rock | Monticello | Mountain Home | Pine Bluff | Texarkana
 Forecast 

KHRO 172339Z 1800/1824 19005KT P6SM VCSH SCT020 BKN080
     FM180200 17005KT P6SM BKN035
     FM180400 20004KT 6SM BR OVC020
     FM180900 31003KT 2SM BR VCSH OVC012
     FM181600 34005KT P6SM BKN020 OVC035
     FM181900 02005KT P6SM SCT025=


 Latest METARs (Observations) 
How to Decode METARs
01Z KHRO 180053Z AUTO VRB03KT 10SM CLR 18/18 A2991 RMK AO2 SLP118
         T01780178
         
00Z KHRO 172353Z AUTO 34004KT 10SM FEW011 19/18 A2990 RMK AO2 LTG DSNT
         SW RAB09E30 SLP114 P0000 60172 T01940183 10222 20172
         58021
         
***** Today's Observations (Above) *****


23Z KHRO 172253Z AUTO 19003KT 10SM CLR 18/18 A2994 RMK AO2 SLP127
         T01830178
         
22Z KHRO 172153Z AUTO 17008KT 10SM CLR 18/18 A2994 RMK AO2 LTG DSNT S
         RAE2056 SLP128 P0000 T01830183
         
21Z KHRO 172053Z AUTO 17007KT 10SM VCTS -RA BKN110 17/17 A2996 RMK AO2
         PK WND 31034/1958 WSHFT 1958 LTG DSNT ALQDS TSE47 SLP138
         P0167 60172 T01720172 58010
         
20Z KHRO 171953Z AUTO 36010KT 320V050 4SM -TSRA BR FEW007 BKN013
         OVC019 19/18 A2998 RMK AO2 LTG DSNT W-NE RAB09 TSB38 SLP142
         P0005 T01890183
         
19Z KHRO 171853Z AUTO 05009KT 10SM BKN013 23/19 A3000 RMK AO2 LTG DSNT
         W-NE SLP146 T02280194
         
18Z KHRO 171753Z AUTO 10007KT 8SM BKN005 OVC010 22/19 A2999 RMK AO2
         CIG 005V008 SLP146 T02170194 10217 20189 58005
         
17Z KHRO 171653Z AUTO 13009KT 5SM BR OVC004 20/19 A3001 RMK AO2 SLP153
         T02000189
         
16Z KHRO 171553Z AUTO 04007KT 8SM BKN006 21/19 A3003 RMK AO2 LTG DSNT
         N AND NE SLP158 T02060194
         
***** Yesterday's Observations (Above) *****


Back to Main Page
http://www.srh.noaa.gov/lzk/qfcst.php

USA.gov is the U.S. government's official web portal to all federal, state and local government web resources and services.